Latest Weather Observations for Golden Grove

IDW60801

Issued at 5:23 am WST Tuesday 6 December 2022 (issued every 10 minutes, with the page automatically refreshed every 10 minutes)

About weather observations | Map of weather stations | Latest weather observations for WA | Other Formats
Station Details ID: 507017 Name: GOLDEN GROVE Lat: -28.76 Lon: 116.97 Height: 356.3 m
Data from the previous 72 hours. | See also: Recent months for locations in Western Australia
Date/Time
WST
Temp
°C
App
Temp
°C
Dew
Point
°C
Rel
Hum
%
Delta-T
°C
Wind Press
QNH
hPa
Press
MSL
hPa
Rain since
9am
mm
Dir  Spd
km/h
Gust
km/h
Spd
kts
Gust
kts
06/05:00am 19.7 17.6 11.2 58 4.7 SSE 13 15 7 8 1009.8 1007.6 0.0
06/04:30am 20.1 18.0 11.3 57 4.9 S 13 19 7 10 1009.7 1007.5 0.0
06/04:00am 20.0 18.0 11.5 58 4.8 S 13 20 7 11 1009.4 1007.2 0.0
06/03:30am 19.6 17.8 12.1 62 4.2 SSW 13 20 7 11 1009.2 1007.0 0.0
06/03:00am 19.5 18.2 12.5 64 4.0 SSW 11 17 6 9 1009.4 1007.2 0.0
06/02:30am 19.7 17.7 12.7 64 4.0 SSW 15 22 8 12 1009.3 1007.1 0.0
06/02:00am 19.8 18.2 12.8 64 4.0 SSW 13 20 7 11 1009.3 1007.1 0.0
06/01:30am 20.3 18.4 13.0 63 4.2 SSW 15 20 8 11 1009.6 1007.4 0.0
06/01:00am 20.9 18.2 12.8 60 4.7 SSW 19 26 10 14 1009.8 1007.6 0.0
06/12:30am 21.6 19.3 13.0 58 5.0 SSW 17 24 9 13 1009.7 1007.5 0.0
06/12:00am 22.1 19.9 13.2 57 5.2 SSW 17 26 9 14 1009.8 1007.6 0.0
 
Date/Time
WST
Temp
°C
App
Temp
°C
Dew
Point
°C
Rel
Hum
%
Delta-T
°C
Wind Press
QNH
hPa
Press
MSL
hPa
Rain since
9am
mm
Dir  Spd
km/h
Gust
km/h
Spd
kts
Gust
kts
05/11:30pm 22.8 19.7 13.3 55 5.6 SSW 22 30 12 16 1009.9 1007.7 0.0
05/11:00pm 23.6 20.4 13.2 52 6.1 SSW 22 30 12 16 1009.9 1007.7 0.0
05/10:30pm 24.7 21.8 13.0 48 6.9 SSW 20 32 11 17 1009.8 1007.6 0.0
05/10:00pm 25.7 22.9 12.5 44 7.8 SSW 19 26 10 14 1009.7 1007.5 0.0
05/09:30pm 26.7 22.1 12.4 41 8.4 SSW 28 37 15 20 1009.6 1007.4 0.0
05/09:00pm 28.1 24.6 10.8 34 10.0 SW 20 28 11 15 1009.4 1007.2 0.0
05/08:30pm 30.2 25.7 6.1 22 13.0 SSW 19 26 10 14 1009.1 1006.9 0.0
05/08:00pm 30.7 26.7 6.6 22 13.2 SSW 17 26 9 14 1009.0 1006.7 0.0
05/07:30pm 31.4 27.6 5.8 20 13.8 SW 15 24 8 13 1008.8 1006.5 0.0
05/07:00pm 32.3 27.7 5.7 19 14.4 SSW 19 30 10 16 1008.3 1006.0 0.0
05/06:30pm 33.4 28.7 5.9 18 15.0 SW 20 28 11 15 1007.9 1005.6 0.0
05/06:00pm 34.4 30.6 5.8 17 15.7 SW 15 28 8 15 1007.6 1005.3 0.0
05/05:30pm 34.6 30.1 6.0 17 15.8 WSW 19 26 10 14 1007.2 1005.0 0.0
05/05:00pm 34.9 30.4 6.2 17 15.9 SSW 19 30 10 16 1007.0 1004.8 0.0
05/04:30pm 35.1 31.8 6.4 17 15.9 WSW 13 26 7 14 1007.0 1004.8 0.0
05/04:00pm 35.0 31.1 7.1 18 15.7 SSW 17 26 9 14 1007.2 1005.0 0.0
05/03:30pm 35.6 31.8 7.6 18 15.9 SW 17 32 9 17 1007.5 1005.2 0.0
05/03:00pm 35.3 30.9 6.6 17 16.0 WSW 19 30 10 16 1007.7 1005.4 0.0
05/02:30pm 35.4 31.0 6.6 17 16.1 SW 19 26 10 14 1008.0 1005.7 0.0
05/02:00pm 35.0 30.9 6.3 17 15.9 W 17 33 9 18 1008.4 1006.1 0.0
05/01:30pm 34.0 30.1 7.1 19 15.0 WSW 17 26 9 14 1008.6 1006.3 0.0
05/01:00pm 33.7 31.4 7.6 20 14.7 SW 9 15 5 8 1008.8 1006.5 0.0
05/12:30pm 32.6 29.5 7.4 21 14.0 NW 13 26 7 14 1009.3 1007.1 0.0
05/12:00pm 32.4 30.4 8.6 23 13.5 WNW 9 17 5 9 1009.5 1007.3 0.0
05/11:30am 31.6 30.1 9.2 25 12.8 SE 7 17 4 9 1009.9 1007.7 0.0
05/11:00am 30.3 28.4 9.2 27 12.0 WNW 9 19 5 10 1010.1 1007.9 0.0
05/10:30am 29.1 27.5 10.3 31 10.8 WNW 9 19 5 10 1010.6 1008.3 0.0
05/10:00am 28.3 27.5 11.8 36 9.7 NNW 7 15 4 8 1010.7 1008.4 0.0
05/09:30am 27.2 26.0 11.7 38 9.0 SW 9 15 5 8 1010.9 1008.6 0.0
05/09:00am 26.2 25.6 12.3 42 8.2 WSW 7 11 4 6 1011.0 1008.7 0.0
05/08:30am 24.8 24.2 12.4 46 7.2 S 7 13 4 7 1011.0 1008.7 0.0
05/08:00am 23.3 22.7 12.3 50 6.4 SE 7 11 4 6 1011.0 1008.7 0.0
05/07:30am 22.1 21.1 12.4 54 5.6 ESE 9 15 5 8 1011.0 1008.7 0.0
05/07:00am 21.2 19.8 12.3 57 5.1 SSE 11 19 6 10 1010.8 1008.5 0.0
05/06:30am 20.3 18.6 12.3 60 4.6 SE 13 17 7 9 1010.8 1008.5 0.0
05/06:00am 19.4 18.4 12.4 64 4.0 SSE 9 13 5 7 1010.7 1008.4 0.0
05/05:30am 17.8 17.4 12.3 70 3.1 SSW 6 7 3 4 1010.6 1008.3 0.0
05/05:00am 17.7 16.7 12.4 71 3.0 SW 9 11 5 6 1010.3 1008.0 0.0
05/04:30am 18.2 16.9 12.4 69 3.3 SW 11 15 6 8 1010.1 1007.9 0.0
05/04:00am 18.8 17.1 12.5 67 3.6 WSW 13 15 7 8 1009.8 1007.6 0.0
05/03:30am 19.3 17.6 12.6 65 3.8 WSW 13 17 7 9 1009.7 1007.5 0.0
05/03:00am 19.9 19.0 12.7 63 4.1 WSW 9 13 5 7 1009.6 1007.4 0.0
05/02:30am 20.5 18.5 12.7 61 4.5 WSW 15 22 8 12 1009.6 1007.4 0.0
05/02:00am 21.1 18.4 12.8 59 4.8 SW 19 24 10 13 1009.6 1007.4 0.0
05/01:30am 21.6 20.0 12.7 57 5.1 WSW 13 20 7 11 1009.6 1007.4 0.0
05/01:00am 22.3 20.3 12.8 55 5.5 SW 15 24 8 13 1009.8 1007.6 0.0
05/12:30am 22.9 20.5 12.8 53 5.9 SW 17 22 9 12 1010.0 1007.8 0.0
05/12:00am 23.7 21.0 13.0 51 6.3 SW 19 28 10 15 1010.0 1007.8 0.0
 
Date/Time
WST
Temp
°C
App
Temp
°C
Dew
Point
°C
Rel
Hum
%
Delta-T
°C
Wind Press
QNH
hPa
Press
MSL
hPa
Rain since
9am
mm
Dir  Spd
km/h
Gust
km/h
Spd
kts
Gust
kts
04/11:30pm 24.6 21.8 13.2 49 6.7 SW 20 30 11 16 1010.3 1008.0 0.0
04/11:00pm 25.2 22.4 13.1 47 7.2 SW 20 28 11 15 1010.5 1008.2 0.0
04/10:30pm 25.8 22.7 13.3 46 7.4 SW 22 32 12 17 1010.7 1008.4 0.0
04/10:00pm 26.2 23.5 13.0 44 7.8 SW 19 26 10 14 1010.9 1008.6 0.0
04/09:30pm 27.1 24.1 12.7 41 8.5 SW 20 30 11 16 1010.9 1008.6 0.0
04/09:00pm 27.9 24.7 11.9 37 9.4 WSW 20 26 11 14 1010.7 1008.4 0.0
04/08:30pm 28.9 24.9 11.9 35 10.0 SW 24 37 13 20 1010.5 1008.2 0.0
04/08:00pm 30.6 26.9 10.0 28 11.9 SW 20 30 11 16 1010.0 1007.8 0.0
04/07:30pm 32.0 27.2 8.9 24 13.2 SW 24 33 13 18 1009.5 1007.3 0.0
04/07:00pm 33.1 28.8 7.1 20 14.5 WSW 19 28 10 15 1009.1 1006.9 0.0
04/06:30pm 34.3 29.7 8.1 20 14.9 WSW 22 30 12 16 1008.7 1006.4 0.0
04/06:00pm 35.5 31.3 7.6 18 15.9 W 19 28 10 15 1008.4 1006.1 0.0
04/05:30pm 36.4 31.4 6.6 16 16.7 W 22 33 12 18 1008.3 1006.0 0.0
04/05:00pm 36.1 31.1 6.3 16 16.6 W 22 35 12 19 1008.0 1005.7 0.0
04/04:30pm 37.2 31.8 6.3 15 17.3 WNW 24 39 13 21 1008.0 1005.7 0.0
04/04:04pm 37.1 30.9 6.2 15 17.3 W 28 46 15 25 1007.9 1005.6 0.0
04/04:00pm 37.1 30.5 6.2 15 17.3 WNW 30 46 16 25 1008.1 1005.8 0.0
04/03:30pm 37.9 32.6 6.8 15 17.6 W 24 41 13 22 1008.1 1005.8 0.0
04/03:00pm 37.8 32.3 5.7 14 17.9 W 24 41 13 22 1008.3 1006.0 0.0
04/02:30pm 36.7 31.2 5.9 15 17.1 WNW 24 37 13 20 1008.6 1006.3 0.0
04/02:14pm 37.2 31.0 6.3 15 17.3 NW 28 46 15 25 1008.7 1006.4 0.0
04/02:00pm 37.0 31.2 6.1 15 17.3 WNW 26 44 14 24 1008.9 1006.6 0.0
04/01:30pm 36.5 31.0 5.7 15 17.0 WNW 24 39 13 21 1009.2 1007.0 0.0
04/01:00pm 36.3 31.5 5.5 15 17.0 WNW 20 33 11 18 1009.4 1007.2 0.0
04/12:30pm 35.7 30.4 5.1 15 16.7 WNW 22 39 12 21 1009.7 1007.5 0.0
04/12:00pm 35.5 30.7 4.9 15 16.7 WNW 19 26 10 14 1009.9 1007.7 0.0
04/11:30am 34.7 30.6 6.1 17 15.8 WNW 17 28 9 15 1010.4 1008.1 0.0
04/11:00am 34.0 30.7 6.3 18 15.3 WNW 13 26 7 14 1010.6 1008.3 0.0
04/10:30am 32.8 30.1 8.9 23 13.7 WNW 13 20 7 11 1010.9 1008.6 0.0
04/10:00am 31.7 29.4 10.4 27 12.4 NW 13 20 7 11 1011.1 1008.8 0.0
04/09:30am 30.0 29.4 12.4 34 10.5 WNW 7 13 4 7 1011.2 1008.9 0.0
04/09:00am 28.0 27.3 12.0 37 9.4 NW 7 11 4 6 1011.3 1009.0 0.0
04/08:30am 26.7 26.5 13.1 43 8.1 SSE 6 11 3 6 1011.4 1009.1 0.0
04/08:00am 24.7 24.0 13.3 49 6.8 SW 9 13 5 7 1011.5 1009.2 0.0
04/07:30am 22.6 21.5 13.1 55 5.6 SW 11 15 6 8 1011.6 1009.3 0.0
04/07:00am 21.4 19.9 13.1 59 4.8 SW 13 19 7 10 1011.6 1009.3 0.0
04/06:30am 20.2 18.6 12.9 63 4.2 WSW 13 17 7 9 1011.3 1009.0 0.0
04/06:00am 19.2 17.3 12.9 67 3.6 SW 15 20 8 11 1011.3 1009.0 0.0
04/05:30am 18.7 17.1 12.7 68 3.4 WSW 13 17 7 9 1011.0 1008.7 0.0
04/05:00am 18.7 17.1 12.7 68 3.4 WSW 13 17 7 9 1010.6 1008.3 0.0
04/04:30am 19.1 17.8 12.6 66 3.7 WSW 11 15 6 8 1010.5 1008.2 0.0
04/04:00am 19.5 17.9 12.8 65 3.8 SW 13 19 7 10 1009.8 1007.6 0.0
04/03:30am 20.3 18.7 12.8 62 4.3 WSW 13 17 7 9 1010.1 1007.9 0.0
04/03:00am 20.9 19.2 12.6 59 4.8 W 13 17 7 9 1009.9 1007.7 0.0
04/02:30am 21.6 20.7 12.5 56 5.2 W 9 13 5 7 1010.0 1007.8 0.0
04/02:00am 22.1 20.8 12.4 54 5.6 WSW 11 15 6 8 1010.3 1008.0 0.0
04/01:30am 22.6 21.2 12.3 52 5.9 WSW 11 17 6 9 1010.0 1007.8 0.0
04/01:00am 23.1 21.3 12.1 50 6.3 SW 13 17 7 9 1010.4 1008.1 0.0
04/12:30am 23.6 21.4 12.0 48 6.7 SW 15 20 8 11 1010.7 1008.4 0.0
04/12:00am 24.3 21.5 11.3 44 7.4 SW 17 20 9 11 1010.6 1008.3 0.0
 
Date/Time
WST
Temp
°C
App
Temp
°C
Dew
Point
°C
Rel
Hum
%
Delta-T
°C
Wind Press
QNH
hPa
Press
MSL
hPa
Rain since
9am
mm
Dir  Spd
km/h
Gust
km/h
Spd
kts
Gust
kts
03/11:30pm 24.8 21.9 11.0 42 7.9 SW 17 22 9 12 1010.6 1008.3 0.0
03/11:00pm 25.5 23.1 10.1 38 8.7 SW 13 19 7 10 1010.7 1008.4 0.0
03/10:30pm 26.3 22.6 10.0 36 9.2 SW 20 26 11 14 1010.9 1008.6 0.0
03/10:00pm 27.0 24.5 11.1 37 9.2 SW 15 22 8 12 1010.8 1008.5 0.0
03/09:30pm 27.7 23.8 10.9 35 9.7 SW 22 32 12 17 1010.7 1008.4 0.0
03/09:00pm 28.7 24.9 9.9 31 10.7 SW 20 32 11 17 1010.4 1008.1 0.0
03/08:30pm 29.4 25.5 9.5 29 11.3 SW 20 32 11 17 1010.0 1007.8 0.0
03/08:00pm 29.9 25.2 9.4 28 11.7 SSW 24 33 13 18 1009.8 1007.6 0.0
03/07:30pm 30.9 25.8 9.2 26 12.3 SW 26 41 14 22 1009.4 1007.2 0.0
03/07:00pm 32.6 27.8 8.8 23 13.6 SW 24 35 13 19 1009.0 1006.7 0.0
03/06:30pm 34.1 29.8 8.0 20 14.8 SW 20 30 11 16 1008.4 1006.1 0.0
03/06:00pm 35.3 30.3 6.6 17 16.0 WSW 22 33 12 18 1007.9 1005.6 0.0
03/05:30pm 35.6 30.7 6.8 17 16.1 WSW 22 35 12 19 1007.7 1005.4 0.0
03/05:00pm 36.3 30.2 6.5 16 16.7 SW 28 37 15 20 1007.4 1005.1 0.0
03/04:30pm 37.4 33.0 7.3 16 17.1 SW 20 32 11 17 1007.1 1004.9 0.0
03/04:00pm 37.9 34.1 7.7 16 17.4 SW 17 26 9 14 1007.0 1004.8 0.0
03/03:30pm 37.9 35.7 7.7 16 17.3 NW 9 24 5 13 1007.1 1004.9 0.0
03/03:00pm 36.7 31.4 6.8 16 16.9 WNW 24 32 13 17 1007.8 1005.5 0.0
03/02:30pm 37.7 33.3 6.6 15 17.5 W 19 32 10 17 1008.0 1005.7 0.0
03/02:00pm 37.5 32.9 6.5 15 17.5 WNW 20 33 11 18 1008.2 1005.9 0.0
03/01:30pm 37.8 32.6 5.7 14 17.9 NNW 22 41 12 22 1008.5 1006.2 0.0
03/01:00pm 37.1 32.6 6.2 15 17.3 WNW 19 32 10 17 1008.8 1006.5 0.0
03/12:30pm 36.6 32.2 6.7 16 16.8 NW 19 35 10 19 1009.0 1006.7 0.0
03/12:00pm 36.1 32.8 6.3 16 16.6 NW 13 24 7 13 1009.2 1007.0 0.0
03/11:30am 34.5 31.6 6.7 18 15.5 W 11 17 6 9 1009.5 1007.3 0.0
03/11:00am 33.8 31.4 7.0 19 15.0 SW 9 17 5 9 1009.9 1007.7 0.0
03/10:30am 32.3 30.2 6.5 20 14.2 WSW 7 11 4 6 1010.1 1007.9 0.0
03/10:00am 30.9 29.9 7.4 23 13.0 WNW 2 6 1 3 1010.5 1008.2 0.0
03/09:30am 28.6 27.3 9.3 30 10.9 NNE 6 9 3 5 1010.7 1008.4 0.0
03/09:00am 26.8 25.4 9.6 34 9.7 SSE 7 13 4 7 1010.8 1008.5 0.0
03/08:30am 25.1 23.4 9.8 38 8.5 ESE 9 15 5 8 1011.0 1008.7 0.0
03/08:00am 23.9 21.8 9.9 41 7.8 ESE 11 15 6 8 1011.1 1008.8 0.0
03/07:30am 22.2 19.7 9.7 45 6.9 S 13 19 7 10 1011.2 1008.9 0.0
03/07:00am 21.2 19.1 9.8 48 6.3 SE 11 17 6 9 1010.9 1008.6 0.0
03/06:30am 20.0 18.2 9.6 51 5.6 ESE 9 15 5 8 1010.6 1008.3 0.0
03/06:00am 18.9 17.1 9.4 54 5.1 SSE 9 15 5 8 1010.3 1008.0 0.0
03/05:30am 18.3 16.9 9.4 56 4.8 SSE 7 13 4 7 1010.1 1007.9 0.0

Other formats

Comma delimited format used in spreadsheet applications
http://www.bom.gov.au/fwo/IDW60801/IDW60801.99401.axf

JavaScript Object Notation format (JSON) in row-major order
http://www.bom.gov.au/fwo/IDW60801/IDW60801.99401.json

Data quality

Most of these data are generated automatically and are frequently updated. Quality checks on data are not normally performed. It is possible for incorrect values to appear. Refer to information at About Latest Weather Observations and please check the disclaimer before using these data.